Flight Track Log - Related Links

Times and Time Zones

All times are in EDT time to prevent confusion due to time zone crossing. See the N893SR flight status page for this flight to view local times or setup timezone preferences in your user account.

Time Position Orientation Groundspeed Altitude Reporting Facility
EDT Latitude Longitude Course Direction KTS MPH feet Rate Location/Type
Sun 10:52:13 AM 42.8842 -85.4601 88° East  Level FlightAware Approximate
Sun 11:00:13 AM 42.9032 -84.9603 88° East  Level FlightAware Approximate
Sun 11:08:13 AM 42.9211 -84.4576 89° East  Level FlightAware Approximate
Sun 11:16:13 AM 42.9516 -83.9560 91° East  Level FlightAware Approximate
Sun 11:24:13 AM 42.9603 -83.4534 92° East  Level FlightAware Approximate
Sun 11:32:13 AM 42.9475 -82.9502 92° East  Level FlightAware Approximate
Sun 11:36:20 AM 42.9333 -82.5167 90° East 200 230 9,000  Level Toronto Center
Sun 11:37:20 AM 42.9333 -82.4333 90° East 200 230 8,900 -50 Descending Toronto Center
Sun 11:38:20 AM 42.9333 -82.3667 90° East 190 219 8,900  Level Toronto Center
Sun 11:39:20 AM 42.9333 -82.3000 90° East 200 230 8,900  Level Toronto Center
Sun 11:40:20 AM 42.9333 -82.2333 90° East 200 230 8,900  Level Toronto Center
Sun 11:41:20 AM 42.9333 -82.1667 90° East 200 230 8,900  Level Toronto Center
Sun 11:42:20 AM 42.9333 -82.0667 71° East 190 219 8,900  Level Toronto Center
Sun 11:43:20 AM 42.9500 -82.0000 90° East 200 230 8,900  Level Toronto Center
Sun 11:44:20 AM 42.9500 -81.9333 71° East 200 230 8,900 50 Level Toronto Center
Sun 11:45:20 AM 42.9667 -81.8667 75° East 200 230 9,000 50 Climbing Toronto Center
Sun 11:46:20 AM 42.9833 -81.7833 90° East 200 230 9,000 -50 Level Toronto Center
Sun 11:47:20 AM 42.9833 -81.7000 90° East 200 230 8,900 -50 Descending Toronto Center
Sun 11:48:20 AM 42.9833 -81.6333 71° East 200 230 8,900  Level Toronto Center
Sun 11:49:20 AM 43.0000 -81.5667 90° East 200 230 8,900 50 Level Toronto Center
Sun 11:50:20 AM 43.0000 -81.4833 90° East 200 230 9,000  Climbing Toronto Center
Sun 11:51:20 AM 43.0000 -81.4167 90° East 200 230 8,900 -50 Descending Toronto Center
Sun 11:52:20 AM 43.0000 -81.3500 77° East 200 230 8,900  Level Toronto Center
Sun 11:53:20 AM 43.0167 -81.2500 90° East 200 230 8,900  Level Toronto Center
Sun 11:54:20 AM 43.0167 -81.1833 90° East 200 230 8,900 50 Level Toronto Center
Sun 11:55:20 AM 43.0167 -81.1167 90° East 200 230 9,000  Climbing Toronto Center
Sun 11:56:20 AM 43.0167 -81.0500 90° East 200 230 8,900  Descending Toronto Center
Sun 11:57:20 AM 43.0167 -80.9500 90° East 200 230 9,000 50 Climbing Toronto Center
Sun 11:58:20 AM 43.0167 -80.8833 109° East 200 230 9,000  Level Toronto Center
Sun 11:59:20 AM 43.0000 -80.8167 75° East 200 230 9,000  Level Toronto Center
Sun 12:00:20 PM 43.0167 -80.7333 90° East 200 230 9,000  Level Toronto Center
Sun 12:01:20 PM 43.0167 -80.6667 90° East 200 230 9,000  Level Toronto Center
Sun 12:02:20 PM 43.0167 -80.5833 90° East 200 230 9,000  Level Toronto Center
Sun 12:03:20 PM 43.0167 -80.5000 90° East 200 230 9,000  Level Toronto Center
Sun 12:04:20 PM 43.0167 -80.4333 109° East 200 230 9,000  Level Toronto Center
Sun 12:05:20 PM 43.0000 -80.3667 90° East 190 219 9,000  Level Toronto Center
Sun 12:06:20 PM 43.0000 -80.3000 90° East 200 230 9,000 200 Level Toronto Center
Sun 12:07:20 PM 43.0000 -80.2333 90° East 190 219 9,400 450 Climbing Toronto Center
Sun 12:08:20 PM 43.0000 -80.1333 90° East 180 207 9,900 450 Climbing Toronto Center
Sun 12:09:20 PM 43.0000 -80.0833 90° East 180 207 10,300 450 Climbing Toronto Center
Sun 12:10:20 PM 43.0000 -80.0000 90° East 180 207 10,800 350 Climbing Toronto Center
Sun 12:11:20 PM 43.0000 -79.9333 90° East 190 219 11,000 100 Climbing Toronto Center
Sun 12:12:20 PM 43.0000 -79.8667 90° East 200 230 11,000  Level Toronto Center
Sun 12:13:20 PM 43.0000 -79.8000 90° East 200 230 11,000  Level Toronto Center
Sun 12:14:20 PM 43.0000 -79.7000 90° East 200 230 11,000  Level Toronto Center
Sun 12:15:20 PM 43.0000 -79.6333 71° East 200 230 11,000  Level Toronto Center
Sun 12:16:20 PM 43.0167 -79.5667 90° East 200 230 11,000  Level Toronto Center
Sun 12:17:20 PM 43.0167 -79.4667 71° East 200 230 11,000  Level Toronto Center
Sun 12:18:20 PM 43.0333 -79.4000 90° East 200 230 11,000 200 Level Toronto Center
Sun 12:19:20 PM 43.0333 -79.3333 90° East 200 230 11,400 450 Climbing Toronto Center
Sun 12:20:20 PM 43.0333 -79.2667 90° East 180 207 11,900 500 Climbing Toronto Center
Sun 12:21:20 PM 43.0333 -79.2000 109° East 180 207 12,400 550 Climbing Toronto Center
Sun 12:22:20 PM 43.0167 -79.1333 109° East 180 207 13,000 550 Climbing Toronto Center
Sun 12:23:20 PM 43.0000 -79.0667 109° East 180 207 13,500 500 Climbing Toronto Center
Sun 12:24:20 PM 42.9833 -79.0000 90° East 180 207 14,000 500 Climbing Toronto Center
Sun 12:25:20 PM 42.9833 -78.9333 90° East 180 207 14,500 500 Climbing Toronto Center
Sun 12:26:20 PM 42.9833 -78.8667 336° Northwest 180 207 15,000 500 Climbing Toronto Center
Sun 12:26:32 PM 42.9914 -78.8717 93° East 175 201 15,100 167 Climbing Cleveland Center
Sun 12:27:32 PM 42.9883 -78.7981 91° East 185 213 15,200 -50 Climbing Cleveland Center
Sun 12:28:32 PM 42.9872 -78.7214 93° East 200 230 15,000 -100 Descending Cleveland Center
Sun 12:29:32 PM 42.9836 -78.6364 93° East 218 251 15,000  Level Cleveland Center
Sun 12:30:32 PM 42.9800 -78.5542 91° East 218 251 15,000  Level Cleveland Center
Sun 12:31:32 PM 42.9786 -78.4719 91° East 213 245 15,000  Level Cleveland Center
Sun 12:32:32 PM 42.9772 -78.3897 94° East 213 245 15,000  Level Cleveland Center
Sun 12:33:32 PM 42.9733 -78.3075 93° East 213 245 15,000  Level Cleveland Center
Sun 12:34:32 PM 42.9694 -78.2139 92° East 218 251 15,000  Level Cleveland Center
Sun 12:35:32 PM 42.9678 -78.1344 92° East 213 245 15,000  Level Cleveland Center
Sun 12:36:32 PM 42.9661 -78.0525 94° East 213 245 15,000  Level Cleveland Center
Sun 12:37:32 PM 42.9622 -77.9675 92° East 218 251 15,000  Level Cleveland Center
Sun 12:38:32 PM 42.9603 -77.8881 94° East 213 245 15,000  Level Cleveland Center
Sun 12:39:32 PM 42.9564 -77.8058 94° East 213 245 15,000  Level Cleveland Center
Sun 12:40:32 PM 42.9522 -77.7267 92° East 213 245 15,000  Level Cleveland Center
Sun 12:41:32 PM 42.9500 -77.6417 92° East 218 251 15,000  Level Cleveland Center
Sun 12:42:32 PM 42.9481 -77.5594 94° East 218 251 15,000 50 Level Cleveland Center
Sun 12:43:32 PM 42.9436 -77.4747 92° East 218 251 15,100 50 Climbing Cleveland Center
Sun 12:44:32 PM 42.9414 -77.3925 92° East 218 251 15,100  Level Cleveland Center
Sun 12:45:32 PM 42.9394 -77.3189 94° East 218 251 15,100 50 Level Cleveland Center
Sun 12:46:32 PM 42.9347 -77.2339 97° East 218 251 15,200 68 Climbing Cleveland Center
Sun 12:48:28 PM 42.9167 -77.0333 90° East 210 242 15,300 -51 Climbing Toronto Center
Sun 12:50:28 PM 42.9167 -76.8833 90° East 230 265 15,000 -100 Descending Toronto Center
Sun 12:51:28 PM 42.9167 -76.7833 90° East 220 253 15,000  Level Toronto Center
Sun 12:52:28 PM 42.9167 -76.7000 124° Southeast 220 253 15,000  Level Toronto Center
Sun 12:53:28 PM 42.8833 -76.6333 90° East 220 253 15,000  Level Toronto Center
Sun 12:54:28 PM 42.8833 -76.5333 90° East 220 253 15,000  Level Toronto Center
Sun 12:55:28 PM 42.8833 -76.4667 75° East 220 253 15,000  Level Toronto Center
Sun 12:56:43 PM 42.8989 -76.3886 91° East 219 252 15,000  Level Boston Center
Sun 12:57:43 PM 42.8975 -76.3092 95° East 214 246 15,000  Level Boston Center
Sun 12:58:43 PM 42.8919 -76.2239 93° East 221 254 15,000  Level Boston Center
Sun 12:59:43 PM 42.8883 -76.1414 95° East 221 254 15,000  Level Boston Center
Sun 01:00:43 PM 42.8828 -76.0589 92° East 211 243 15,000  Level Boston Center
Sun 01:01:43 PM 42.8811 -75.9794 95° East 219 252 15,000  Level Boston Center
Sun 01:02:43 PM 42.8753 -75.8969 94° East 212 244 15,000  Level Boston Center
Sun 01:03:43 PM 42.8714 -75.8144 95° East 217 250 15,000  Level Boston Center
Sun 01:04:43 PM 42.8656 -75.7319 92° East 217 250 15,000  Level Boston Center
Sun 01:05:43 PM 42.8636 -75.6497 96° East 217 250 15,000  Level Boston Center
Sun 01:06:43 PM 42.8575 -75.5700 94° East 217 250 15,000  Level Boston Center
Sun 01:07:43 PM 42.8536 -75.4850 92° East 217 250 15,000  Level Boston Center
Sun 01:08:43 PM 42.8517 -75.4056 98° East 217 250 15,000  Level Boston Center
Sun 01:09:43 PM 42.8433 -75.3231 92° East 217 250 15,000  Level Boston Center
Sun 01:10:43 PM 42.8411 -75.2408 97° East 217 250 15,000  Level Boston Center
Sun 01:11:43 PM 42.8347 -75.1667 94° East 217 250 15,000  Level Boston Center
Sun 01:12:43 PM 42.8303 -75.0872 94° East 217 250 15,000  Level Boston Center
Sun 01:13:43 PM 42.8258 -75.0050 94° East 217 250 15,000  Level Boston Center
Sun 01:14:43 PM 42.8214 -74.9256 96° East 217 250 15,000  Level Boston Center
Sun 01:15:43 PM 42.8147 -74.8431 95° East 217 250 15,000  Level Boston Center
Sun 01:16:43 PM 42.8083 -74.7522 93° East 223 257 15,000  Level Boston Center
Sun 01:17:43 PM 42.8056 -74.6758 96° East 218 251 15,000  Level Boston Center
Sun 01:18:43 PM 42.7992 -74.5878 93° East 218 251 15,000  Level Boston Center
Sun 01:19:43 PM 42.7961 -74.5142 96° East 218 251 15,000  Level Boston Center
Sun 01:20:43 PM 42.7894 -74.4261 95° East 218 251 15,000  Level Boston Center
Sun 01:21:43 PM 42.7844 -74.3497 94° East 218 251 15,000  Level Boston Center
Sun 01:22:43 PM 42.7797 -74.2647 95° East 218 251 15,000  Level Boston Center
Sun 01:23:43 PM 42.7747 -74.1881 97° East 218 251 15,000  Level Boston Center
Sun 01:24:43 PM 42.7675 -74.1031 96° East 218 251 15,000  Level Boston Center
Sun 01:25:43 PM 42.7622 -74.0294 95° East 212 244 15,000  Level Boston Center
Sun 01:26:43 PM 42.7572 -73.9472 97° East 212 244 15,000  Level Boston Center
Sun 01:27:43 PM 42.7500 -73.8650 91° East 217 250 15,000  Level Boston Center
Sun 01:28:43 PM 42.7489 -73.7803 101° East 217 250 15,000  Level Boston Center
Sun 01:29:43 PM 42.7372 -73.6953 99° East 217 250 15,000  Level Boston Center
Sun 01:30:43 PM 42.7278 -73.6103 99° East 217 250 15,000  Level Boston Center
Sun 01:31:43 PM 42.7183 -73.5308 97° East 222 255 15,000  Level Boston Center
Sun 01:32:43 PM 42.7106 -73.4489 99° East 222 255 15,000  Level Boston Center
Sun 01:33:43 PM 42.7008 -73.3667 97° East 222 255 15,000  Level Boston Center
Sun 01:34:43 PM 42.6933 -73.2847 99° East 222 255 15,000  Level Boston Center
Sun 01:35:43 PM 42.6833 -73.1997 99° East 222 255 15,000  Level Boston Center
Sun 01:36:43 PM 42.6756 -73.1347 99° East 222 255 15,000  Level Boston Center
Sun 01:37:43 PM 42.6656 -73.0444 99° East 222 255 15,000 -150 Level Boston Center
Sun 01:38:43 PM 42.6556 -72.9594 99° East 222 255 14,700 -350 Descending Boston Center
Sun 01:39:43 PM 42.6456 -72.8719 99° East 222 255 14,300 -500 Descending Boston Center
Sun 01:40:43 PM 42.6353 -72.7844 99° East 227 261 13,700 -650 Descending Boston Center
Sun 01:41:43 PM 42.6253 -72.7025 102° East 227 261 13,000 -700 Descending Boston Center
Sun 01:42:43 PM 42.6128 -72.6206 94° East 222 255 12,300 -700 Descending Boston Center
Sun 01:43:43 PM 42.6089 -72.5389 96° East 222 255 11,600 -750 Descending Boston Center
Sun 01:44:43 PM 42.6025 -72.4569 100° East 217 250 10,800 -800 Descending Boston Center
Sun 01:45:43 PM 42.5922 -72.3781 98° East 217 250 10,000 -900 Descending Boston Center
Sun 01:46:43 PM 42.5836 -72.2964 102° East 217 250 9,000 -1,100 Descending Boston Center
Sun 01:47:43 PM 42.5689 -72.2061 97° East 222 255 7,800 -1,000 Descending Boston Center
Sun 01:48:43 PM 42.5625 -72.1328 95° East 211 243 7,000 -800 Descending Boston Center
Sun 01:49:43 PM 42.5581 -72.0597 102° East 194 223 6,200 -500 Descending Boston Center
Sun 01:50:43 PM 42.5475 -71.9947 104° East 182 209 6,000 -100 Descending Boston Center
Sun 01:51:43 PM 42.5369 -71.9386 98° East 165 190 6,000  Level Boston Center
Sun 01:52:43 PM 42.5303 -71.8767 96° East 160 184 6,000 -100 Level Boston Center
Sun 01:53:43 PM 42.5258 -71.8147 98° East 160 184 5,800 -350 Descending Boston Center
Sun 01:54:43 PM 42.5192 -71.7472 98° East 170 196 5,300 -500 Descending Boston Center
Sun 01:55:43 PM 42.5125 -71.6825 98° East 175 201 4,800 -500 Descending Boston Center
Sun 01:56:43 PM 42.5058 -71.6150 118° Southeast 182 209 4,300 -696 Descending Boston Center
Sun 01:56:52 PM 42.5000 -71.6000 132° Southeast 184 212 4,000 -514 Descending Boston TRACON
Sun 01:57:53 PM 42.4667 -71.5500 144° Southeast 168 193 3,700 -397 Descending Boston TRACON
Sun 01:58:53 PM 42.4333 -71.5167 166° South 175 201 3,200 -400 Descending Boston TRACON
Sun 01:59:53 PM 42.3833 -71.5000 144° Southeast 169 194 2,900 -109 Descending Boston TRACON
Sun 02:00:43 PM 42.3589 -71.4764 154° Southeast 162 186 3,000 55 Climbing Boston Center
Sun 02:01:43 PM 42.3211 -71.4517 162° South 155 178 3,000  Level Boston Center
Sun 02:02:43 PM 42.2833 -71.4356 166° South 143 165 3,000  Level Boston Center
Sun 02:03:43 PM 42.2519 -71.4247 160° South 137 158 3,000  Level Boston Center
Sun 02:04:43 PM 42.2144 -71.4058 141° Southeast 127 146 3,000  Level Boston Center
Sun 02:05:43 PM 42.1892 -71.3781 128° Southeast 127 146 3,000 -32 Level Boston Center
Sun 02:07:49 PM 42.1333 -71.2833 114° Southeast 144 166 2,900 -32 Descending Boston TRACON
Sun 02:08:49 PM 42.1167 -71.2333 160° South 135 155 2,900 -50 Level Boston TRACON
Sun 02:09:49 PM 42.0833 -71.2167 160° South 125 144 2,800 -300 Descending Boston TRACON
Sun 02:10:49 PM 42.0500 -71.2000 143° Southeast 133 153 2,300 -450 Descending Boston TRACON
Sun 02:11:49 PM 42.0167 -71.1667 143° Southeast 124 143 1,900 -198 Descending Boston TRACON
Sun 02:12:50 PM 42.0000 -71.1500 124° Southeast 107 123 1,900  Level Boston TRACON
Sun 02:13:50 PM 41.9833 -71.1167 66° East 138 159 1,900  Level Boston TRACON
Sun 02:14:50 PM 42.0000 -71.0667 360° North 155 178 1,900  Level Boston TRACON
Sun 02:15:50 PM 42.0500 -71.0667 304° West 162 186 1,900  Level Boston TRACON
Sun 02:16:45 PM 42.0667 -71.1000 334° Northwest 147 169 1,900 -209 Level Boston TRACON
Sun 02:17:45 PM 42.1167 -71.1333 340° North 171 197 1,500 -550 Descending Boston TRACON
Sun 02:18:45 PM 42.1500 -71.1500 340° North 160 184 800 -700 Descending Boston TRACON

Login

Don't have an account? Register now (free) for customized features, flight alerts, and more!